Kempton, North Dakota
Current Conditions -  °F | °C
As of 2:58 AM on Sunday 23 Nov 2014 (Local Time) from KRDR Reporting Station
Overcast Overcast  
Wind Chill: 25°   Ceiling: 500
Heat Index: 32°   Visibility: 7mi
Dew Point: 32°   Wind: 8mph
Humidity: 100%   Direction: 210°SSW
Pressure: 29.35"   Gusts: NA
Location:  47.7445°N, 97.5815°W
Report Text: KRDR 230858Z AUTO 21007KT 7SM OVC005 00/00 A2935 RMK AO2 SLP952 53002
Loading
Personal Weather Stations






























Interactive Weather Map New forecast layout! Learn more

10-Day Weather Forecast

Advertisements
Track Severe Weather on mobile